Time;durP1;ratioP1;P1;durP2;ratioP2;P2;SDS_P1;SDS_P2;PMS_P1;PMS_P2;Temp;Humidity;BMP_temperature;BMP_pressure;BME280_temperature;BME280_humidity;BME280_pressure;Samples;Min_cycle;Max_cycle;Signal;HPM_P1;HPM_P2
2022/06/10 00:02:34;;;;;;;13.45;12.15;;;20.10;99.90;;;;;;4961610;28;20257;-77
2022/06/10 00:05:29;;;;;;;12.63;11.27;;;19.90;99.90;;;;;;4950277;28;20725;-76
2022/06/10 00:08:21;;;;;;;13.40;11.50;;;19.90;99.90;;;;;;4953111;28;20216;-74
2022/06/10 00:11:13;;;;;;;13.52;11.52;;;19.90;99.90;;;;;;4966775;28;20318;-74
2022/06/10 00:14:04;;;;;;;14.82;11.95;;;19.80;99.90;;;;;;4962744;28;20215;-76
2022/06/10 00:16:53;;;;;;;16.60;11.60;;;19.80;99.90;;;;;;4962586;28;20219;-75
2022/06/10 00:19:42;;;;;;;13.05;11.75;;;19.70;99.90;;;;;;4945423;28;20243;-76
2022/06/10 00:22:31;;;;;;;15.75;11.68;;;19.80;99.90;;;;;;4965921;28;20222;-75
2022/06/10 00:25:20;;;;;;;12.52;11.20;;;19.80;99.90;;;;;;4967794;28;20791;-75
2022/06/10 00:28:11;;;;;;;13.18;11.40;;;19.80;99.90;;;;;;4961437;28;20860;-76
2022/06/10 00:31:00;;;;;;;13.23;11.73;;;19.70;99.90;;;;;;4961897;28;20231;-74
2022/06/10 00:33:48;;;;;;;13.45;12.02;;;19.70;99.90;;;;;;4960420;28;20238;-75
2022/06/10 00:36:37;;;;;;;15.45;11.95;;;19.50;99.90;;;;;;4954427;28;20302;-74
2022/06/10 00:39:26;;;;;;;14.25;11.90;;;19.50;99.90;;;;;;4963898;28;20236;-76
2022/06/10 00:42:15;;;;;;;13.20;11.75;;;19.60;99.90;;;;;;4964694;28;20286;-75
2022/06/10 00:45:07;;;;;;;14.30;12.57;;;19.70;99.90;;;;;;4964091;28;20222;-75
2022/06/10 00:47:56;;;;;;;13.80;12.23;;;19.70;99.90;;;;;;4963854;28;20227;-77
2022/06/10 00:50:45;;;;;;;15.98;12.70;;;19.70;99.90;;;;;;4950136;28;20305;-76
2022/06/10 00:53:36;;;;;;;14.68;13.07;;;19.80;99.90;;;;;;4963936;28;20769;-76
2022/06/10 00:56:27;;;;;;;16.60;13.10;;;19.70;99.90;;;;;;4962628;28;20222;-80
2022/06/10 00:59:22;;;;;;;17.73;13.80;;;19.60;99.90;;;;;;4964293;28;20223;-77
2022/06/10 01:02:15;;;;;;;15.77;13.52;;;19.40;99.90;;;;;;4960450;28;20818;-77
2022/06/10 01:05:09;;;;;;;17.85;14.05;;;19.40;99.90;;;;;;4959964;28;20786;-76
2022/06/10 01:08:03;;;;;;;15.02;13.40;;;19.40;99.90;;;;;;4950170;28;20216;-77
2022/06/10 01:11:07;;;;;;;16.35;14.20;;;19.50;99.90;;;;;;4962480;28;20267;-76
2022/06/10 01:14:07;;;;;;;17.65;13.70;;;19.50;99.90;;;;;;4962359;28;20219;-76
2022/06/10 01:17:06;;;;;;;15.30;13.70;;;19.40;99.90;;;;;;4944809;28;20231;-75
2022/06/10 01:20:11;;;;;;;15.98;14.35;;;19.40;99.90;;;;;;4964360;28;20665;-74
2022/06/10 01:23:32;;;;;;;16.98;13.73;;;19.40;99.90;;;;;;4962225;28;20219;-75
2022/06/10 01:30:37;;;;;;;15.43;13.82;;;19.50;99.90;;;;;;4948711;28;20227;-75
2022/06/10 01:33:49;;;;;;;14.90;13.40;;;19.50;99.90;;;;;;4963630;28;20764;-75
2022/06/10 01:36:50;;;;;;;15.20;13.60;;;19.50;99.90;;;;;;4962868;28;20242;-75
2022/06/10 01:39:48;;;;;;;15.40;13.73;;;19.40;99.90;;;;;;4965054;28;20227;-75
2022/06/10 01:42:43;;;;;;;14.68;13.18;;;19.40;99.90;;;;;;4965226;28;20224;-75
2022/06/10 01:45:36;;;;;;;17.83;13.90;;;19.40;99.90;;;;;;4964857;28;20369;-76
2022/06/10 01:48:33;;;;;;;15.20;13.57;;;19.30;99.90;;;;;;4964600;28;20227;-77
2022/06/10 01:51:28;;;;;;;19.40;14.00;;;19.30;99.90;;;;;;4948024;28;20289;-78
2022/06/10 01:54:26;;;;;;;18.55;13.98;;;19.30;99.90;;;;;;4962723;28;20242;-74
2022/06/10 01:57:22;;;;;;;17.65;13.80;;;19.30;99.90;;;;;;4932395;28;20235;-76
2022/06/10 02:00:17;;;;;;;13.98;12.52;;;19.30;99.90;;;;;;4943365;29;20224;-76
2022/06/10 02:03:11;;;;;;;17.17;13.23;;;19.30;99.90;;;;;;4941209;28;20363;-75
2022/06/10 02:06:07;;;;;;;15.18;13.57;;;19.20;99.90;;;;;;4929080;29;20338;-76
2022/06/10 02:09:00;;;;;;;15.73;14.13;;;19.20;99.90;;;;;;4942666;28;20224;-76
2022/06/10 02:11:52;;;;;;;20.25;14.27;;;19.10;99.90;;;;;;4936679;29;20238;-75
2022/06/10 02:15:05;;;;;;;15.70;13.80;;;19.20;99.90;;;;;;4939912;28;20228;-75
2022/06/10 02:18:00;;;;;;;15.50;13.90;;;19.40;99.90;;;;;;4939464;28;20231;-76
2022/06/10 02:20:53;;;;;;;17.23;14.20;;;19.40;99.90;;;;;;4940846;29;20224;-75
2022/06/10 02:23:48;;;;;;;13.35;11.93;;;19.30;99.90;;;;;;4942291;28;20231;-75
2022/06/10 02:26:38;;;;;;;14.50;13.02;;;19.30;99.90;;;;;;4939516;29;20231;-75
2022/06/10 02:29:33;;;;;;;17.15;12.90;;;19.40;99.90;;;;;;4941644;28;20240;-74
2022/06/10 02:32:21;;;;;;;16.88;12.25;;;19.40;99.90;;;;;;4924229;28;20219;-75
2022/06/10 02:35:11;;;;;;;13.90;12.15;;;19.40;99.90;;;;;;4941260;29;20315;-75
2022/06/10 02:38:09;;;;;;;14.63;12.45;;;19.30;99.90;;;;;;4947856;28;20311;-72
2022/06/10 02:41:06;;;;;;;14.10;12.20;;;19.30;99.90;;;;;;4948275;28;20354;-71
2022/06/10 02:44:05;;;;;;;13.15;11.85;;;19.40;99.90;;;;;;4919852;29;20374;-76
2022/06/10 02:47:04;;;;;;;15.90;12.32;;;19.40;99.90;;;;;;4938018;28;20727;-76
2022/06/10 02:49:53;;;;;;;13.20;11.50;;;19.40;99.90;;;;;;4940678;28;20224;-77
2022/06/10 02:52:42;;;;;;;13.05;11.73;;;19.50;99.90;;;;;;4942440;29;20220;-77
2022/06/10 02:55:31;;;;;;;13.52;11.07;;;19.50;99.90;;;;;;4925778;28;20238;-75
2022/06/10 03:01:35;;;;;;;15.00;12.13;;;19.50;99.90;;;;;;4943121;28;20224;-76
2022/06/10 03:04:31;;;;;;;15.63;12.35;;;19.60;99.90;;;;;;4947057;28;20235;-76
2022/06/10 03:07:37;;;;;;;18.00;14.30;;;19.50;99.90;;;;;;4941869;28;20224;-74
2022/06/10 03:10:36;;;;;;;16.23;14.50;;;19.40;99.90;;;;;;4943199;28;20231;-74
2022/06/10 03:13:38;;;;;;;20.73;14.65;;;19.40;99.90;;;;;;4949436;28;20212;-75
2022/06/10 03:16:39;;;;;;;17.23;14.80;;;19.50;99.90;;;;;;4940172;28;20319;-76
2022/06/10 03:19:51;;;;;;;19.92;15.85;;;19.50;99.90;;;;;;4941477;28;20247;-77
2022/06/10 03:22:56;;;;;;;22.00;16.38;;;19.40;99.90;;;;;;4938558;28;20224;-76
2022/06/10 03:25:48;;;;;;;17.27;15.30;;;19.30;99.90;;;;;;4941482;28;20227;-77
2022/06/10 03:28:46;;;;;;;17.27;15.35;;;19.10;99.90;;;;;;4937626;28;20224;-76
2022/06/10 03:31:39;;;;;;;16.15;14.55;;;19.10;99.90;;;;;;4951857;28;20294;-77
2022/06/10 03:34:36;;;;;;;16.55;14.65;;;19.10;99.90;;;;;;4950861;28;20228;-77
2022/06/10 03:37:26;;;;;;;15.48;13.80;;;19.10;99.90;;;;;;4940311;28;20233;-77
2022/06/10 03:40:18;;;;;;;16.75;12.82;;;19.10;99.90;;;;;;4942071;28;20228;-76
2022/06/10 03:43:10;;;;;;;14.98;12.57;;;19.20;99.90;;;;;;4937074;28;20228;-76
2022/06/10 03:46:02;;;;;;;15.43;12.45;;;19.10;99.90;;;;;;4937944;28;20887;-76
2022/06/10 03:48:52;;;;;;;17.55;12.20;;;19.20;99.90;;;;;;4937530;28;20255;-76
2022/06/10 03:51:42;;;;;;;15.20;12.43;;;19.30;99.90;;;;;;4939242;28;20221;-75
2022/06/10 03:54:30;;;;;;;13.73;12.23;;;19.20;99.90;;;;;;4941196;28;20235;-76
2022/06/10 03:57:19;;;;;;;17.67;13.07;;;19.30;99.90;;;;;;4944868;28;20235;-78
2022/06/10 04:00:10;;;;;;;16.83;12.40;;;19.40;99.90;;;;;;4940830;28;20235;-77
2022/06/10 04:03:02;;;;;;;14.40;13.00;;;19.40;99.90;;;;;;4937961;28;20359;-75
2022/06/10 04:05:51;;;;;;;15.23;13.45;;;19.50;99.90;;;;;;4945314;28;20220;-74
2022/06/10 04:09:00;;;;;;;17.95;13.18;;;19.60;99.90;;;;;;4944125;29;20224;-77
2022/06/10 04:11:53;;;;;;;16.50;13.00;;;19.70;99.90;;;;;;4942823;28;20711;-79
2022/06/10 04:14:41;;;;;;;16.85;13.95;;;19.90;99.90;;;;;;4944007;28;20403;-79
2022/06/10 04:17:30;;;;;;;15.95;13.05;;;19.90;99.90;;;;;;4944316;28;20233;-77
2022/06/10 04:20:22;;;;;;;15.88;13.43;;;20.00;99.90;;;;;;4954150;28;20871;-77
2022/06/10 04:23:13;;;;;;;16.67;13.18;;;20.20;99.90;;;;;;4944043;28;20220;-78
2022/06/10 04:26:05;;;;;;;21.35;13.30;;;20.30;99.90;;;;;;4940568;28;20228;-77
2022/06/10 04:28:54;;;;;;;14.00;12.52;;;20.20;99.90;;;;;;4944033;28;20228;-77
2022/06/10 04:31:43;;;;;;;14.50;12.23;;;20.40;99.90;;;;;;4937633;28;20235;-76
2022/06/10 04:34:32;;;;;;;16.27;11.57;;;20.60;99.90;;;;;;4944012;28;20231;-76
2022/06/10 04:37:22;;;;;;;15.63;12.35;;;20.70;99.90;;;;;;4943677;28;20224;-77
2022/06/10 04:40:12;;;;;;;16.48;11.73;;;20.70;99.90;;;;;;4943059;28;20731;-78
2022/06/10 04:43:01;;;;;;;14.65;11.93;;;20.70;99.90;;;;;;4943114;28;20231;-77
2022/06/10 04:45:52;;;;;;;12.65;11.32;;;20.40;99.90;;;;;;4943760;28;20216;-75
2022/06/10 04:48:41;;;;;;;16.50;11.77;;;20.70;99.90;;;;;;4943229;28;20311;-75
2022/06/10 04:51:29;;;;;;;14.10;12.00;;;20.80;99.90;;;;;;4946301;28;20220;-75
2022/06/10 04:54:19;;;;;;;14.98;12.35;;;20.90;99.90;;;;;;4941784;28;20286;-76
2022/06/10 04:57:08;;;;;;;13.52;11.65;;;20.90;99.90;;;;;;4962845;28;20223;-75
2022/06/10 04:59:57;;;;;;;13.98;11.75;;;20.80;99.90;;;;;;4951856;28;20216;-75
2022/06/10 05:02:45;;;;;;;15.45;11.45;;;20.80;99.90;;;;;;4959338;28;20247;-75
2022/06/10 05:05:35;;;;;;;15.13;12.38;;;20.80;99.90;;;;;;4945124;28;20224;-75
2022/06/10 05:08:24;;;;;;;15.90;13.20;;;20.90;99.90;;;;;;4963040;28;20220;-76
2022/06/10 05:11:14;;;;;;;13.52;11.70;;;20.80;99.90;;;;;;4965393;28;20218;-75
2022/06/10 05:14:02;;;;;;;14.70;11.77;;;21.00;99.90;;;;;;4950092;28;20418;-77
2022/06/10 05:16:51;;;;;;;18.85;11.98;;;21.10;99.90;;;;;;4946694;28;20247;-78
2022/06/10 05:19:39;;;;;;;15.77;12.20;;;21.20;99.90;;;;;;4947753;28;20235;-78
2022/06/10 05:22:28;;;;;;;13.95;12.55;;;21.10;99.90;;;;;;4948258;28;20248;-78
2022/06/10 05:25:19;;;;;;;18.15;12.68;;;21.20;99.90;;;;;;4946485;28;20227;-78
2022/06/10 05:28:10;;;;;;;14.52;12.85;;;21.30;99.90;;;;;;4963313;28;20219;-77
2022/06/10 05:30:59;;;;;;;17.23;12.85;;;21.10;99.90;;;;;;4962960;28;20215;-78
2022/06/10 05:36:54;;;;;;;16.60;12.43;;;21.10;99.90;;;;;;4959501;28;20228;-78
2022/06/10 05:39:43;;;;;;;13.82;11.65;;;21.00;99.90;;;;;;4950832;28;20338;-76
2022/06/10 05:42:32;;;;;;;16.67;11.73;;;21.20;99.90;;;;;;4965385;28;20230;-77
2022/06/10 05:45:23;;;;;;;15.02;13.43;;;21.20;99.90;;;;;;4958553;28;20216;-75
2022/06/10 05:48:12;;;;;;;16.10;11.70;;;21.40;99.90;;;;;;4962716;28;20230;-76
2022/06/10 05:51:01;;;;;;;13.70;10.93;;;21.50;99.90;;;;;;4961490;28;20352;-76
2022/06/10 05:53:50;;;;;;;13.90;11.63;;;21.60;99.90;;;;;;4960695;28;20223;-76
2022/06/10 05:56:39;;;;;;;16.80;11.77;;;21.60;99.90;;;;;;4946939;28;20231;-77
2022/06/10 05:59:29;;;;;;;15.35;11.55;;;21.70;99.90;;;;;;4948640;28;20226;-79
2022/06/10 06:02:22;;;;;;;15.77;11.40;;;21.50;99.90;;;;;;4959455;28;20373;-76
2022/06/10 06:05:11;;;;;;;14.80;11.80;;;21.70;99.90;;;;;;4959572;28;20289;-80
2022/06/10 06:08:00;;;;;;;14.35;11.70;;;21.80;99.90;;;;;;4941915;28;20220;-76
2022/06/10 06:10:49;;;;;;;16.33;11.10;;;22.10;99.90;;;;;;4959175;28;20231;-77
2022/06/10 06:13:37;;;;;;;16.20;11.07;;;22.30;99.90;;;;;;4959430;28;20246;-75
2022/06/10 06:16:26;;;;;;;17.55;12.10;;;22.40;99.90;;;;;;4958554;28;20224;-73
2022/06/10 06:19:16;;;;;;;15.00;11.05;;;22.60;99.90;;;;;;4947197;28;20227;-76
2022/06/10 06:22:05;;;;;;;11.98;10.88;;;23.90;99.90;;;;;;4960874;28;20232;-75
2022/06/10 06:24:57;;;;;;;11.82;10.63;;;25.10;99.90;;;;;;4960358;28;20374;-75
2022/06/10 06:27:48;;;;;;;14.68;10.70;;;25.10;99.90;;;;;;4961804;28;20223;-78
2022/06/10 06:30:37;;;;;;;12.23;10.98;;;24.50;99.90;;;;;;4961428;28;20231;-76
2022/06/10 06:33:26;;;;;;;12.93;10.32;;;23.80;99.90;;;;;;4960602;28;20223;-74
2022/06/10 06:36:20;;;;;;;11.05;9.93;;;23.70;99.90;;;;;;4961769;28;20236;-76
2022/06/10 06:39:10;;;;;;;13.20;10.32;;;23.60;99.90;;;;;;4964553;28;20345;-76
2022/06/10 06:41:59;;;;;;;14.82;10.50;;;23.60;99.90;;;;;;4963312;28;20228;-77
2022/06/10 06:44:54;;;;;;;11.88;9.45;;;23.70;99.90;;;;;;4962213;28;20234;-78
2022/06/10 06:48:04;;;;;;;10.75;9.30;;;23.80;99.90;;;;;;4945350;28;20230;-83
2022/06/10 06:50:52;;;;;;;9.98;8.70;;;23.50;99.90;;;;;;4965766;28;20211;-81
2022/06/10 06:53:42;;;;;;;9.63;8.60;;;23.40;99.90;;;;;;4958970;28;21030;-78
2022/06/10 06:56:31;;;;;;;12.65;9.15;;;23.20;99.90;;;;;;4959303;28;20259;-78
2022/06/10 06:59:20;;;;;;;10.18;9.18;;;23.40;99.90;;;;;;4947745;28;20995;-78
2022/06/10 07:02:10;;;;;;;10.73;9.63;;;23.30;99.90;;;;;;4964076;28;20251;-74
2022/06/10 07:04:59;;;;;;;12.70;10.18;;;23.30;99.90;;;;;;4965753;28;20220;-81
2022/06/10 07:07:48;;;;;;;11.50;9.60;;;24.30;99.90;;;;;;4960030;28;20379;-80
2022/06/10 07:10:38;;;;;;;11.18;9.57;;;24.60;99.90;;;;;;4965552;28;20219;-83
2022/06/10 07:13:27;;;;;;;11.27;9.05;;;24.80;99.90;;;;;;4963236;28;20392;-80
2022/06/10 07:16:16;;;;;;;12.27;9.23;;;24.90;99.90;;;;;;4947415;28;20227;-81
2022/06/10 07:19:04;;;;;;;15.05;9.73;;;24.80;99.90;;;;;;4961104;28;20365;-81
2022/06/10 07:21:53;;;;;;;12.52;8.75;;;24.90;99.90;;;;;;4949914;28;20733;-80
2022/06/10 07:24:42;;;;;;;12.93;8.98;;;25.10;99.90;;;;;;4962399;28;20219;-81
2022/06/10 07:27:32;;;;;;;9.43;8.13;;;25.60;99.90;;;;;;4959114;28;20267;-83
2022/06/10 07:30:26;;;;;;;10.85;8.77;;;25.70;99.90;;;;;;4960210;28;21130;-82
2022/06/10 07:33:16;;;;;;;9.07;8.18;;;25.50;99.90;;;;;;4961556;28;20222;-80
2022/06/10 07:36:06;;;;;;;9.05;8.10;;;25.50;99.90;;;;;;4966013;28;20239;-82
2022/06/10 07:38:55;;;;;;;8.93;7.80;;;26.10;99.90;;;;;;4954862;28;20230;-82
2022/06/10 07:42:00;;;;;;;11.13;9.20;;;25.80;99.90;;;;;;4965012;28;20367;-82
2022/06/10 07:44:50;;;;;;;10.05;7.55;;;25.70;99.90;;;;;;4970972;28;20219;-80
2022/06/10 07:47:41;;;;;;;9.07;7.25;;;25.80;99.90;;;;;;4963629;28;20725;-77
2022/06/10 07:50:30;;;;;;;8.15;7.35;;;26.60;99.90;;;;;;4960948;28;20262;-80
2022/06/10 07:53:20;;;;;;;9.50;7.50;;;26.80;99.90;;;;;;4958335;28;20228;-78
2022/06/10 07:56:09;;;;;;;8.25;7.35;;;26.80;99.90;;;;;;4963345;28;20710;-78
2022/06/10 07:58:59;;;;;;;8.73;7.18;;;27.00;99.90;;;;;;4958832;28;20846;-79
2022/06/10 08:01:50;;;;;;;8.18;6.70;;;27.00;99.90;;;;;;4957403;28;20235;-79
2022/06/10 08:04:38;;;;;;;8.93;7.25;;;26.90;99.90;;;;;;4960589;28;20223;-76
2022/06/10 08:07:27;;;;;;;8.85;6.90;;;27.20;99.90;;;;;;4960885;28;20735;-75
2022/06/10 08:10:19;;;;;;;9.55;6.88;;;26.50;99.90;;;;;;4947067;28;20294;-77
2022/06/10 08:13:08;;;;;;;7.85;6.50;;;27.20;99.90;;;;;;4969586;28;20834;-80
2022/06/10 08:15:58;;;;;;;7.60;6.80;;;28.20;99.90;;;;;;4963949;28;20298;-79
2022/06/10 08:18:48;;;;;;;8.07;6.75;;;28.10;99.90;;;;;;4950972;28;20578;-78
2022/06/10 08:24:47;;;;;;;6.75;6.15;;;26.50;99.90;;;;;;4962453;28;20576;-74
2022/06/10 08:27:36;;;;;;;7.63;6.28;;;26.40;99.90;;;;;;4962955;28;20234;-75
2022/06/10 08:30:25;;;;;;;8.63;6.18;;;27.50;99.90;;;;;;4959228;28;22199;-77
2022/06/10 08:33:13;;;;;;;7.35;6.00;;;27.50;99.90;;;;;;4949107;28;20317;-78
2022/06/10 08:36:05;;;;;;;6.90;6.05;;;26.90;99.90;;;;;;4963148;28;20223;-74
2022/06/10 08:38:54;;;;;;;6.13;4.93;;;28.10;99.90;;;;;;4949995;28;20553;-75
2022/06/10 08:41:56;;;;;;;7.10;4.40;;;28.80;99.90;;;;;;4956763;28;20720;-76
2022/06/10 08:44:53;;;;;;;4.75;4.13;;;29.80;99.40;;;;;;4943905;28;20230;-76
2022/06/10 08:47:55;;;;;;;5.13;3.78;;;29.70;96.70;;;;;;4960812;28;20223;-76
2022/06/10 08:51:04;;;;;;;6.03;4.68;;;28.90;97.40;;;;;;4958803;28;20222;-74
2022/06/10 08:54:15;;;;;;;5.82;3.83;;;29.20;99.90;;;;;;4959896;28;20308;-75
2022/06/10 08:57:12;;;;;;;4.93;3.75;;;30.00;96.10;;;;;;4960497;28;20263;-80
2022/06/10 09:00:02;;;;;;;4.47;3.78;;;30.40;94.90;;;;;;4960263;28;20219;-77
2022/06/10 09:02:56;;;;;;;5.68;4.00;;;30.80;92.70;;;;;;4960054;28;20261;-76
2022/06/10 09:05:48;;;;;;;4.50;3.63;;;31.40;93.10;;;;;;4949344;28;20239;-78
2022/06/10 09:08:40;;;;;;;4.72;3.75;;;31.10;91.50;;;;;;4945965;28;20227;-77
2022/06/10 09:11:38;;;;;;;4.63;4.22;;;31.40;89.50;;;;;;4956065;28;20311;-75
2022/06/10 09:14:28;;;;;;;4.72;3.80;;;31.50;89.50;;;;;;4959157;28;20586;-77
2022/06/10 09:17:22;;;;;;;4.78;4.00;;;31.40;87.80;;;;;;4959234;28;20750;-79
2022/06/10 09:20:16;;;;;;;4.78;4.28;;;31.20;90.70;;;;;;4944588;28;20267;-80
2022/06/10 09:23:11;;;;;;;8.70;6.55;;;31.50;90.00;;;;;;4961822;28;20223;-75
2022/06/10 09:26:08;;;;;;;5.15;4.47;;;31.80;89.70;;;;;;4962713;28;20234;-77
2022/06/10 09:28:58;;;;;;;4.47;4.07;;;31.90;88.70;;;;;;4958432;28;20321;-77
2022/06/10 09:31:57;;;;;;;6.30;4.00;;;31.80;87.90;;;;;;4945369;28;20346;-75
2022/06/10 09:34:55;;;;;;;5.82;4.03;;;31.00;89.20;;;;;;4955916;28;20241;-76
2022/06/10 09:37:51;;;;;;;5.72;4.00;;;31.30;89.60;;;;;;4960114;28;20279;-79
2022/06/10 09:40:46;;;;;;;4.55;3.92;;;31.70;85.10;;;;;;4956005;28;20278;-76
2022/06/10 09:43:54;;;;;;;4.00;3.60;;;31.20;86.80;;;;;;4942695;28;20277;-80
2022/06/10 09:47:12;;;;;;;4.22;3.78;;;31.40;85.70;;;;;;4955387;28;20246;-81
2022/06/10 09:50:13;;;;;;;4.22;3.30;;;32.00;84.70;;;;;;4960998;28;20225;-81
2022/06/10 09:53:16;;;;;;;4.85;3.53;;;31.40;85.90;;;;;;4961518;28;20226;-79
2022/06/10 09:56:28;;;;;;;4.20;3.67;;;31.50;85.80;;;;;;4956299;28;20288;-75
2022/06/10 09:59:26;;;;;;;3.85;3.45;;;32.50;82.50;;;;;;4959139;28;20229;-74
2022/06/10 10:02:28;;;;;;;3.67;3.20;;;33.20;79.30;;;;;;4959510;28;21086;-75
2022/06/10 10:05:29;;;;;;;3.88;3.58;;;33.50;77.50;;;;;;4961451;28;20401;-77
2022/06/10 10:08:25;;;;;;;4.05;3.70;;;32.70;78.70;;;;;;4958729;28;20234;-76
2022/06/10 10:11:22;;;;;;;4.30;3.90;;;32.20;81.00;;;;;;4959950;28;20265;-77
2022/06/10 10:14:22;;;;;;;4.13;3.78;;;31.60;82.00;;;;;;4960457;28;21020;-77
2022/06/10 10:17:32;;;;;;;4.20;3.80;;;31.70;83.40;;;;;;4961158;28;20231;-76
2022/06/10 10:20:30;;;;;;;4.47;3.40;;;32.90;78.40;;;;;;4957980;28;20246;-76
2022/06/10 10:23:23;;;;;;;4.07;3.70;;;32.70;77.00;;;;;;4944046;28;20350;-75
2022/06/10 10:26:20;;;;;;;4.43;4.03;;;32.20;77.10;;;;;;4959081;28;20211;-75
2022/06/10 10:29:14;;;;;;;5.78;4.03;;;33.30;79.80;;;;;;4939877;28;20350;-75
2022/06/10 10:32:10;;;;;;;4.93;3.72;;;35.00;74.10;;;;;;4944362;28;20238;-76
2022/06/10 10:35:08;;;;;;;7.28;3.65;;;35.40;71.80;;;;;;4962069;28;20547;-76
2022/06/10 10:38:00;;;;;;;3.90;3.50;;;36.10;70.90;;;;;;4957022;28;20237;-75
2022/06/10 10:40:48;;;;;;;6.18;4.00;;;35.20;72.00;;;;;;4963100;28;20231;-75
2022/06/10 10:43:37;;;;;;;4.28;3.42;;;34.60;70.10;;;;;;4946987;28;20829;-75
2022/06/10 10:46:33;;;;;;;3.42;3.13;;;34.70;71.70;;;;;;4962693;28;20229;-75
2022/06/10 10:49:28;;;;;;;7.68;5.80;;;34.80;67.60;;;;;;4940893;28;20222;-77
2022/06/10 10:52:22;;;;;;;6.65;3.63;;;34.50;71.30;;;;;;4942678;28;20237;-77
2022/06/10 10:55:25;;;;;;;4.18;3.58;;;36.50;65.00;;;;;;4957975;28;20245;-77
2022/06/10 10:58:18;;;;;;;3.60;3.20;;;34.40;67.90;;;;;;4954454;28;20701;-77
2022/06/10 11:01:09;;;;;;;3.67;3.33;;;33.50;71.80;;;;;;4959810;28;20249;-78
2022/06/10 11:04:02;;;;;;;4.00;3.53;;;32.60;72.10;;;;;;4955971;28;20323;-76
2022/06/10 11:06:59;;;;;;;5.50;3.53;;;33.20;74.30;;;;;;4967050;28;20309;-76
2022/06/10 11:10:19;;;;;;;6.45;3.70;;;35.60;68.10;;;;;;4963134;28;20223;-76
2022/06/10 11:13:09;;;;;;;7.72;3.80;;;37.00;65.00;;;;;;4963355;28;20219;-78
2022/06/10 11:16:17;;;;;;;7.55;3.53;;;34.60;66.80;;;;;;4965462;28;20251;-76
2022/06/10 11:19:20;;;;;;;4.05;3.65;;;31.80;73.70;;;;;;4955284;28;20270;-78
2022/06/10 11:22:16;;;;;;;4.53;3.60;;;30.90;76.50;;;;;;4957582;28;20614;-76
2022/06/10 11:25:26;;;;;;;5.75;3.80;;;32.90;75.70;;;;;;4960779;28;20537;-77
2022/06/10 11:28:20;;;;;;;7.38;3.55;;;35.20;69.20;;;;;;4960845;28;20305;-78
2022/06/10 11:31:19;;;;;;;5.18;3.45;;;36.60;65.20;;;;;;4949288;28;20306;-77
2022/06/10 11:34:16;;;;;;;6.80;3.42;;;33.30;71.20;;;;;;4963734;28;20219;-74
2022/06/10 11:37:21;;;;;;;4.75;4.00;;;31.50;75.70;;;;;;4962093;28;20249;-74
2022/06/10 11:40:15;;;;;;;5.10;3.30;;;35.00;70.50;;;;;;4947136;28;20816;-74
2022/06/10 11:43:13;;;;;;;5.78;3.30;;;35.00;70.20;;;;;;4966525;28;20296;-77
2022/06/10 11:46:05;;;;;;;3.65;3.35;;;37.10;65.70;;;;;;4963213;28;20362;-75
2022/06/10 11:48:59;;;;;;;4.72;3.15;;;35.70;64.60;;;;;;4966570;28;20392;-75
2022/06/10 11:51:53;;;;;;;4.55;3.20;;;33.20;69.60;;;;;;4961972;28;20231;-76
2022/06/10 11:54:47;;;;;;;6.47;4.07;;;31.20;77.70;;;;;;4959869;28;20334;-76
2022/06/10 12:00:55;;;;;;;5.15;2.92;;;32.70;71.60;;;;;;4948908;28;20590;-77
2022/06/10 12:03:49;;;;;;;5.57;3.65;;;36.10;67.20;;;;;;4961721;28;20302;-77
2022/06/10 12:06:44;;;;;;;5.65;3.00;;;37.60;63.10;;;;;;4960739;28;20238;-78
2022/06/10 12:09:38;;;;;;;6.20;2.97;;;35.30;65.60;;;;;;4959017;28;20238;-77
2022/06/10 12:12:34;;;;;;;5.53;3.20;;;32.10;72.40;;;;;;4962456;28;20662;-77
2022/06/10 12:15:30;;;;;;;4.10;3.25;;;31.40;77.00;;;;;;4964502;28;20353;-76
2022/06/10 12:18:29;;;;;;;4.28;3.75;;;30.70;78.50;;;;;;4960532;28;20793;-76
2022/06/10 12:21:21;;;;;;;5.35;4.10;;;29.90;82.30;;;;;;4962194;28;20331;-77
2022/06/10 12:24:14;;;;;;;4.68;4.25;;;29.20;84.10;;;;;;4961669;28;20230;-77
2022/06/10 12:27:31;;;;;;;7.22;4.90;;;29.00;86.00;;;;;;4963264;28;20868;-78
2022/06/10 12:30:26;;;;;;;5.78;4.25;;;31.20;81.50;;;;;;4963568;28;20218;-76
2022/06/10 12:33:22;;;;;;;5.05;4.60;;;33.10;74.70;;;;;;4958401;28;20223;-78
2022/06/10 12:36:18;;;;;;;6.78;4.40;;;33.00;71.50;;;;;;4960981;28;20231;-77
2022/06/10 12:39:20;;;;;;;4.63;4.22;;;33.40;71.90;;;;;;4962699;28;20739;-79
2022/06/10 12:42:15;;;;;;;4.43;4.03;;;33.30;72.50;;;;;;4962813;28;20225;-78
2022/06/10 12:45:14;;;;;;;6.40;4.28;;;34.00;68.10;;;;;;4963822;28;20582;-77
2022/06/10 12:48:10;;;;;;;5.35;4.20;;;33.20;73.00;;;;;;4959750;28;20219;-79
2022/06/10 12:51:05;;;;;;;6.35;5.30;;;32.70;73.10;;;;;;4960433;28;20241;-77
2022/06/10 12:54:09;;;;;;;7.45;5.15;;;31.70;77.50;;;;;;4961067;28;20377;-77
2022/06/10 12:57:28;;;;;;;6.40;5.35;;;31.20;78.10;;;;;;4958810;28;20231;-74
2022/06/10 13:00:40;;;;;;;9.73;6.32;;;30.10;80.00;;;;;;4955768;28;20306;-74
2022/06/10 13:03:36;;;;;;;7.10;6.43;;;29.50;85.20;;;;;;4953516;28;20230;-74
2022/06/10 13:06:31;;;;;;;7.45;6.50;;;29.00;86.50;;;;;;4955647;28;20219;-84
2022/06/10 13:09:27;;;;;;;11.20;7.80;;;28.30;90.60;;;;;;4958860;28;21407;-75
2022/06/10 13:12:38;;;;;;;14.88;8.00;;;28.30;91.80;;;;;;4961163;28;20223;-76
2022/06/10 13:15:30;;;;;;;9.40;8.50;;;27.90;94.10;;;;;;4965861;28;20219;-76
2022/06/10 13:18:33;;;;;;;8.55;7.53;;;28.30;94.10;;;;;;4951148;28;23070;-76
2022/06/10 13:21:31;;;;;;;7.53;6.70;;;28.00;95.70;;;;;;4957976;28;20714;-76
2022/06/10 13:24:20;;;;;;;7.68;6.88;;;27.60;96.50;;;;;;4955966;28;20226;-77
2022/06/10 13:27:21;;;;;;;7.20;6.43;;;27.90;96.70;;;;;;4955745;28;20232;-76
2022/06/10 13:30:14;;;;;;;7.53;5.32;;;27.60;97.60;;;;;;4965478;28;20378;-78
2022/06/10 13:33:13;;;;;;;4.88;4.47;;;27.50;99.60;;;;;;4945657;28;20220;-77
2022/06/10 13:36:02;;;;;;;5.18;4.22;;;27.20;99.90;;;;;;4950595;28;20605;-76
2022/06/10 13:38:53;;;;;;;4.20;3.63;;;27.40;99.90;;;;;;4960422;28;20721;-76
2022/06/10 13:41:52;;;;;;;9.90;4.25;;;27.80;99.90;;;;;;4948291;28;20911;-77
2022/06/10 13:44:46;;;;;;;5.05;3.22;;;27.60;99.90;;;;;;4961354;28;20231;-77
2022/06/10 13:47:36;;;;;;;4.60;3.08;;;27.20;98.60;;;;;;4960198;28;20242;-75
2022/06/10 13:50:42;;;;;;;3.78;2.78;;;26.80;99.90;;;;;;4969237;28;20578;-77
2022/06/10 13:53:34;;;;;;;3.38;2.70;;;26.60;99.90;;;;;;4948690;28;20219;-77
2022/06/10 13:56:28;;;;;;;4.30;3.53;;;26.50;99.90;;;;;;4962422;28;20258;-77
2022/06/10 13:59:29;;;;;;;3.78;3.15;;;26.70;99.90;;;;;;4955375;28;20227;-76
2022/06/10 14:02:27;;;;;;;4.20;3.55;;;26.40;99.90;;;;;;4947809;28;20301;-76
2022/06/10 14:05:19;;;;;;;4.07;3.67;;;26.40;99.90;;;;;;4959298;28;20809;-78
2022/06/10 14:08:17;;;;;;;4.57;3.92;;;26.30;99.90;;;;;;4947115;28;20698;-78
2022/06/10 14:11:14;;;;;;;3.90;3.60;;;26.20;99.90;;;;;;4956894;28;20223;-77
2022/06/10 14:14:05;;;;;;;5.30;3.95;;;26.20;99.90;;;;;;4960048;28;20230;-77
2022/06/10 14:17:09;;;;;;;4.40;3.70;;;25.80;99.90;;;;;;4958534;28;20294;-76
2022/06/10 14:20:02;;;;;;;7.15;4.45;;;25.70;99.90;;;;;;4957139;28;20390;-78
2022/06/10 14:23:00;;;;;;;7.28;4.57;;;25.60;99.90;;;;;;4956286;28;20395;-76
2022/06/10 14:26:01;;;;;;;6.28;4.88;;;25.70;99.90;;;;;;4959882;28;20236;-76
2022/06/10 14:28:51;;;;;;;6.13;4.85;;;25.40;99.90;;;;;;4959878;28;20222;-76
2022/06/10 14:31:43;;;;;;;7.38;4.55;;;25.50;99.90;;;;;;4949385;28;20212;-73
2022/06/10 14:34:32;;;;;;;5.70;4.18;;;25.30;99.90;;;;;;4953149;28;20285;-72
2022/06/10 14:37:30;;;;;;;7.57;4.40;;;25.40;99.90;;;;;;4958360;28;20674;-76
2022/06/10 14:40:22;;;;;;;5.03;4.53;;;25.70;99.90;;;;;;4962551;28;20208;-74
2022/06/10 14:43:21;;;;;;;4.85;4.35;;;25.70;99.90;;;;;;4966787;28;20223;-76
2022/06/10 14:46:19;;;;;;;5.18;4.00;;;25.20;99.90;;;;;;4974819;28;20230;-77
2022/06/10 14:49:26;;;;;;;4.97;4.50;;;25.10;99.90;;;;;;4957388;28;20227;-79
2022/06/10 16:50:49;;;;;;;8.65;6.95;;;22.80;99.90;;;;;;5048205;27;21260;-80
2022/06/10 16:53:59;;;;;;;9.57;6.55;;;22.40;99.90;;;;;;5066366;28;20670;-82
2022/06/10 16:56:48;;;;;;;7.75;6.28;;;22.20;99.90;;;;;;5059811;28;20227;-82
2022/06/10 16:59:39;;;;;;;7.20;6.32;;;22.20;99.90;;;;;;5075608;28;20681;-82
2022/06/10 17:02:33;;;;;;;7.25;6.47;;;22.50;99.90;;;;;;5070874;28;20220;-83
2022/06/10 17:05:25;;;;;;;7.80;7.00;;;22.50;99.90;;;;;;5076534;28;20212;-82
2022/06/10 17:08:19;;;;;;;7.43;6.72;;;22.50;99.90;;;;;;5070267;28;20218;-82
2022/06/10 17:11:17;;;;;;;8.43;6.65;;;22.60;99.90;;;;;;5073870;28;20357;-83
2022/06/10 17:14:08;;;;;;;8.40;6.15;;;22.40;99.90;;;;;;5051357;28;20342;-82